Terminal Aerodrome Forecast
Issued by NWS Twin Cities, MN

Home | Current Version | Previous Version | Graphics & Text | Print | Product List | Glossary On
Versions: 1 2 3 4 5 6 7 8 9 10 11 12 13 14 15 16 17 18 19 20 21 22 23 24 25 26 27 28 29 30 31 32
000
FTUS43 KMPX 242320
TAFMSP
TAF
KMSP 242320Z 2500/2606 08009KT 4SM -DZ BR BKN009 OVC015
     FM250400 05003KT 3SM BR VCSH OVC008
     FM251500 29004KT P6SM SCT008 OVC012
     FM252000 25009KT P6SM SCT015 OVC018
     FM260000 31010KT P6SM FEW020 OVC050=

USA.gov is the U.S. government's official web portal to all federal, state and local government web resources and services.